Time;durP1;ratioP1;P1;durP2;ratioP2;P2;SDS_P1;SDS_P2;PMS_P1;PMS_P2;Temp;Humidity;BMP_temperature;BMP_pressure;BME280_temperature;BME280_humidity;BME280_pressure;Samples;Min_cycle;Max_cycle;Signal;HPM_P1;HPM_P2
2022/04/14 00:00:19;;;;;;;0.75;0.25;;;;;;;11.48;55.93;100885.94;5031967;28;20107;-74
2022/04/14 00:02:47;;;;;;;0.95;0.30;;;;;;;11.30;57.74;100884.59;5031463;28;20107;-72
2022/04/14 00:05:16;;;;;;;0.60;0.22;;;;;;;10.76;58.90;100904.53;5030983;28;20103;-74
2022/04/14 00:07:44;;;;;;;1.85;0.45;;;;;;;10.39;60.94;100887.84;5032095;28;20053;-72
2022/04/14 00:10:15;;;;;;;0.70;0.35;;;;;;;10.26;62.97;100902.03;5031706;28;20119;-74
2022/04/14 00:12:48;;;;;;;1.13;0.10;;;;;;;10.15;61.85;100888.78;5031600;28;20107;-72
2022/04/14 00:15:16;;;;;;;2.17;0.20;;;;;;;10.16;63.04;100900.84;5031859;28;20510;-71
2022/04/14 00:17:45;;;;;;;0.28;0.28;;;;;;;10.05;62.27;100897.03;5031900;28;20103;-72
2022/04/14 00:20:14;;;;;;;2.10;0.30;;;;;;;9.94;61.56;100896.69;5030212;28;20549;-70
2022/04/14 00:22:43;;;;;;;0.32;0.32;;;;;;;9.90;62.76;100896.53;5030770;28;20073;-71
2022/04/14 00:25:12;;;;;;;0.40;0.10;;;;;;;9.93;62.13;100900.09;5019652;28;20158;-71
2022/04/14 00:27:42;;;;;;;1.70;0.40;;;;;;;9.84;60.73;100898.06;5011251;28;20062;-72
2022/04/14 00:30:12;;;;;;;2.17;0.30;;;;;;;9.66;63.16;100902.59;5029416;28;20080;-75
2022/04/14 00:32:40;;;;;;;0.88;0.25;;;;;;;9.61;60.21;100899.84;5017160;28;20180;-71
2022/04/14 00:35:09;;;;;;;1.02;0.32;;;;;;;9.52;61.95;100903.78;5013260;28;20049;-72
2022/04/14 00:37:39;;;;;;;0.57;0.32;;;;;;;9.37;62.82;100905.00;5002074;28;20511;-74
2022/04/14 00:40:08;;;;;;;1.95;0.20;;;;;;;9.43;61.60;100906.91;5004163;28;20046;-72
2022/04/14 00:42:37;;;;;;;0.50;0.20;;;;;;;9.42;61.05;100902.59;5009904;28;20530;-74
2022/04/14 00:45:09;;;;;;;1.40;0.65;;;;;;;9.41;63.52;100906.88;5010372;28;20104;-72
2022/04/14 00:47:38;;;;;;;1.70;0.50;;;;;;;9.46;64.83;100899.31;5010899;28;20057;-71
2022/04/14 00:50:07;;;;;;;1.30;0.30;;;;;;;9.51;65.03;100907.22;5011171;28;20382;-71
2022/04/14 00:52:36;;;;;;;1.80;0.43;;;;;;;9.54;63.50;100902.16;5009894;28;20062;-71
2022/04/14 00:55:05;;;;;;;1.65;0.35;;;;;;;9.48;64.57;100904.50;5010513;28;20519;-73
2022/04/14 00:57:33;;;;;;;0.85;0.40;;;;;;;9.47;63.99;100901.03;5011034;28;20502;-72
2022/04/14 01:00:02;;;;;;;0.57;0.30;;;;;;;9.43;65.40;100900.03;5010449;28;20085;-71
2022/04/14 01:02:32;;;;;;;3.67;0.40;;;;;;;9.41;66.68;100896.56;5010228;28;20054;-75
2022/04/14 01:05:04;;;;;;;0.38;0.25;;;;;;;9.54;63.51;100902.16;5010776;28;20119;-73
2022/04/14 01:07:35;;;;;;;0.40;0.30;;;;;;;9.50;64.12;100900.28;5010592;28;20050;-72
2022/04/14 01:10:04;;;;;;;0.28;0.28;;;;;;;9.55;65.45;100901.31;5010691;28;20096;-73
2022/04/14 01:12:33;;;;;;;1.52;0.40;;;;;;;9.42;63.61;100889.69;5002083;28;20104;-74
2022/04/14 01:15:02;;;;;;;0.82;0.30;;;;;;;9.56;65.88;100898.78;5010687;28;20515;-75
2022/04/14 01:17:32;;;;;;;1.20;0.28;;;;;;;9.59;63.91;100896.31;5010130;28;20092;-75
2022/04/14 01:20:00;;;;;;;1.40;0.60;;;;;;;9.54;64.49;100897.84;5010264;28;20113;-73
2022/04/14 01:22:35;;;;;;;1.65;0.30;;;;;;;9.50;65.56;100888.22;5029572;28;20340;-73
2022/04/14 01:25:05;;;;;;;1.88;0.20;;;;;;;9.59;65.81;100890.28;5030739;28;20401;-73
2022/04/14 01:27:33;;;;;;;0.60;0.32;;;;;;;9.59;66.59;100882.53;5030508;28;20076;-72
2022/04/14 01:30:02;;;;;;;1.55;0.28;;;;;;;9.72;65.86;100886.44;5031415;28;20560;-72
2022/04/14 01:32:30;;;;;;;4.13;0.30;;;;;;;9.70;65.01;100883.78;5047568;28;20085;-73
2022/04/14 01:34:59;;;;;;;1.33;0.30;;;;;;;9.70;65.86;100883.78;5049487;28;20114;-74
2022/04/14 01:37:27;;;;;;;2.22;0.40;;;;;;;9.69;65.55;100887.22;5049872;28;20584;-74
2022/04/14 01:39:56;;;;;;;3.03;0.38;;;;;;;9.71;65.22;100877.81;5037778;28;20095;-73
2022/04/14 01:42:32;;;;;;;0.20;0.20;;;;;;;9.65;66.06;100877.59;5029324;28;20164;-73
2022/04/14 01:45:01;;;;;;;1.65;0.25;;;;;;;9.72;65.79;100874.38;5029892;28;20049;-73
2022/04/14 01:47:29;;;;;;;0.77;0.30;;;;;;;9.73;67.11;100876.13;5029798;28;20049;-73
2022/04/14 01:49:58;;;;;;;0.50;0.20;;;;;;;9.76;66.18;100872.81;5029463;28;20053;-73
2022/04/14 01:52:26;;;;;;;1.17;0.10;;;;;;;9.67;64.95;100875.94;5028655;28;20103;-74
2022/04/14 01:54:55;;;;;;;0.55;0.43;;;;;;;9.62;65.61;100874.88;5029382;28;20045;-73
2022/04/14 01:57:25;;;;;;;0.60;0.28;;;;;;;9.60;64.59;100861.91;5029167;28;20088;-74
2022/04/14 01:59:53;;;;;;;0.73;0.20;;;;;;;9.51;63.58;100866.75;5029088;28;20553;-73
2022/04/14 02:02:22;;;;;;;1.45;0.30;;;;;;;9.37;64.72;100866.28;5027974;28;20077;-73
2022/04/14 02:04:51;;;;;;;0.17;0.15;;;;;;;9.33;64.63;100859.22;5029271;28;20140;-74
2022/04/14 02:07:20;;;;;;;0.60;0.43;;;;;;;9.31;64.25;100865.16;5029220;28;20049;-74
2022/04/14 02:09:48;;;;;;;0.65;0.40;;;;;;;9.19;65.29;100857.84;5028512;28;20108;-73
2022/04/14 02:12:17;;;;;;;0.47;0.20;;;;;;;9.14;66.17;100851.63;5028880;28;20077;-74
2022/04/14 02:14:47;;;;;;;0.82;0.40;;;;;;;9.11;66.85;100856.69;5029132;28;20045;-73
2022/04/14 02:17:16;;;;;;;0.75;0.20;;;;;;;9.12;66.36;100861.03;5029750;28;20050;-73
2022/04/14 02:19:44;;;;;;;0.63;0.20;;;;;;;9.08;68.09;100859.16;5029127;28;20076;-74
2022/04/14 02:22:12;;;;;;;1.10;0.30;;;;;;;9.02;66.73;100854.63;5029285;28;20053;-72
2022/04/14 02:24:41;;;;;;;0.28;0.15;;;;;;;8.96;65.65;100855.28;5029596;28;20046;-73
2022/04/14 02:27:10;;;;;;;2.08;0.40;;;;;;;8.94;66.81;100846.63;5033321;28;20444;-72
2022/04/14 02:29:38;;;;;;;0.98;0.40;;;;;;;8.92;66.33;100845.69;5029312;28;20053;-74
2022/04/14 02:32:09;;;;;;;0.43;0.32;;;;;;;8.83;65.50;100852.19;5029089;28;20096;-73
2022/04/14 02:34:37;;;;;;;0.75;0.25;;;;;;;8.76;65.23;100857.13;5028157;28;20136;-73
2022/04/14 02:37:06;;;;;;;1.38;0.40;;;;;;;8.70;65.05;100854.28;5027920;28;20057;-74
2022/04/14 02:39:35;;;;;;;2.42;0.30;;;;;;;8.64;64.90;100846.34;5027910;28;20077;-73
2022/04/14 02:42:03;;;;;;;3.42;0.80;;;;;;;8.52;65.64;100838.09;5026855;28;20679;-73
2022/04/14 02:44:31;;;;;;;1.77;0.40;;;;;;;8.53;64.47;100847.63;5028866;28;20084;-73
2022/04/14 02:47:00;;;;;;;2.10;0.73;;;;;;;8.47;65.63;100842.22;5029616;28;20057;-73
2022/04/14 02:49:30;;;;;;;5.05;0.60;;;;;;;8.41;65.62;100837.69;5028862;28;20049;-74
2022/04/14 02:51:58;;;;;;;0.70;0.20;;;;;;;8.34;66.30;100841.69;5028227;28;20085;-74
2022/04/14 02:54:27;;;;;;;1.58;0.20;;;;;;;8.25;68.20;100833.59;5028986;28;20091;-75
2022/04/14 02:56:55;;;;;;;0.40;0.25;;;;;;;8.17;68.73;100848.72;5028410;28;20058;-74
2022/04/14 02:59:24;;;;;;;4.35;0.50;;;;;;;8.08;70.35;100842.34;5028638;28;20081;-75
2022/04/14 03:01:52;;;;;;;1.35;0.30;;;;;;;7.96;69.50;100837.56;5027236;28;20119;-74
2022/04/14 03:04:21;;;;;;;3.60;0.20;;;;;;;7.88;72.60;100833.78;5028355;28;20085;-74
2022/04/14 03:06:51;;;;;;;1.10;0.40;;;;;;;7.82;71.87;100838.69;5029837;28;20107;-74
2022/04/14 03:09:19;;;;;;;0.20;0.20;;;;;;;7.75;72.65;100843.56;5032522;28;20045;-75
2022/04/14 03:11:47;;;;;;;1.33;0.40;;;;;;;7.68;72.40;100846.72;5031832;28;20111;-74
2022/04/14 03:14:16;;;;;;;0.52;0.40;;;;;;;7.62;73.42;100841.28;5031241;28;20737;-73
2022/04/14 03:16:44;;;;;;;1.08;0.30;;;;;;;7.56;73.19;100843.63;5031422;28;20049;-75
2022/04/14 03:19:13;;;;;;;1.35;0.30;;;;;;;7.54;71.77;100843.56;5032290;28;20069;-74
2022/04/14 03:21:41;;;;;;;1.95;0.28;;;;;;;7.49;72.05;100849.28;5039924;28;20049;-74
2022/04/14 03:24:12;;;;;;;1.42;0.47;;;;;;;7.46;73.14;100854.31;5052040;28;20446;-74
2022/04/14 03:26:40;;;;;;;2.70;1.00;;;;;;;7.48;72.23;100857.84;5056134;28;20052;-74
2022/04/14 03:29:09;;;;;;;1.65;1.10;;;;;;;7.51;71.94;100852.81;5052466;28;20049;-74
2022/04/14 03:31:37;;;;;;;1.35;0.65;;;;;;;7.42;70.29;100855.00;5052118;28;20053;-75
2022/04/14 03:34:05;;;;;;;0.38;0.20;;;;;;;7.39;70.02;100852.31;5051341;28;20136;-74
2022/04/14 03:36:34;;;;;;;0.95;0.50;;;;;;;7.36;70.45;100858.19;5052136;28;20180;-74
2022/04/14 03:39:02;;;;;;;1.95;0.70;;;;;;;7.30;74.56;100851.06;5047177;28;20152;-77
2022/04/14 03:41:32;;;;;;;0.52;0.30;;;;;;;7.19;74.14;100853.97;5031454;28;20151;-75
2022/04/14 03:44:01;;;;;;;1.35;0.45;;;;;;;7.10;73.99;100852.78;5031311;28;20495;-75
2022/04/14 03:46:31;;;;;;;0.40;0.20;;;;;;;7.04;73.89;100859.34;5031238;28;20049;-74
2022/04/14 03:48:59;;;;;;;0.50;0.30;;;;;;;7.04;75.85;100872.19;5031780;28;20049;-75
2022/04/14 03:51:28;;;;;;;1.50;0.50;;;;;;;7.04;78.84;100855.06;5031515;28;20051;-74
2022/04/14 03:53:56;;;;;;;0.75;0.40;;;;;;;7.04;80.04;100859.34;5030961;28;20472;-75
2022/04/14 03:56:28;;;;;;;0.57;0.40;;;;;;;7.06;79.43;100860.28;5031455;28;20115;-75
2022/04/14 03:59:00;;;;;;;1.13;0.40;;;;;;;7.06;78.85;100860.28;5030820;28;20049;-75
2022/04/14 04:01:29;;;;;;;2.10;0.35;;;;;;;7.07;78.19;100869.75;5030703;28;20053;-74
2022/04/14 04:03:57;;;;;;;1.15;0.30;;;;;;;7.06;76.80;100868.00;5031081;28;20053;-75
2022/04/14 04:06:25;;;;;;;1.85;0.52;;;;;;;7.04;75.72;100869.63;5031016;28;20085;-76
2022/04/14 04:08:54;;;;;;;0.43;0.30;;;;;;;7.00;74.75;100867.72;5031442;28;20050;-73
2022/04/14 04:11:22;;;;;;;1.60;0.57;;;;;;;6.97;75.13;100865.03;5031182;28;20077;-73
2022/04/14 04:13:51;;;;;;;0.38;0.25;;;;;;;6.93;74.53;100864.84;5030890;28;20202;-73
2022/04/14 04:16:21;;;;;;;0.35;0.32;;;;;;;6.85;74.78;100857.59;5031561;28;20103;-73
2022/04/14 04:18:49;;;;;;;1.30;0.65;;;;;;;6.74;78.99;100869.09;5031113;28;20479;-74
2022/04/14 04:21:18;;;;;;;1.00;0.30;;;;;;;6.66;80.13;100868.72;5032847;28;20044;-74
2022/04/14 04:23:46;;;;;;;0.43;0.30;;;;;;;6.63;80.46;100866.03;5032164;28;20333;-74
2022/04/14 04:26:15;;;;;;;0.93;0.60;;;;;;;6.55;80.37;100857.03;5032959;28;20558;-74
2022/04/14 04:28:43;;;;;;;0.47;0.30;;;;;;;6.54;80.99;100863.00;5031397;28;20491;-75
2022/04/14 04:31:12;;;;;;;0.75;0.50;;;;;;;6.53;79.91;100859.56;5031428;28;20659;-75
2022/04/14 04:33:42;;;;;;;0.68;0.38;;;;;;;6.49;78.31;100866.25;5030148;28;20049;-74
2022/04/14 04:36:11;;;;;;;3.00;0.85;;;;;;;6.46;77.97;100867.81;5030896;28;20120;-73
2022/04/14 04:38:39;;;;;;;3.33;0.60;;;;;;;6.42;77.74;100869.34;5030841;28;20072;-75
2022/04/14 04:41:08;;;;;;;2.85;0.70;;;;;;;6.40;77.86;100862.34;5030031;28;20127;-74
2022/04/14 04:43:36;;;;;;;2.35;0.82;;;;;;;6.36;77.82;100858.75;5030040;28;20526;-74
2022/04/14 04:46:05;;;;;;;1.25;0.55;;;;;;;6.32;78.49;100861.09;5030775;28;20133;-74
2022/04/14 04:48:33;;;;;;;2.53;0.45;;;;;;;6.28;78.59;100867.78;5030138;28;20084;-74
2022/04/14 04:51:04;;;;;;;5.18;0.75;;;;;;;6.22;78.36;100867.47;5030612;28;20115;-75
2022/04/14 04:53:32;;;;;;;0.60;0.38;;;;;;;6.08;81.05;100867.69;5030038;28;20068;-74
2022/04/14 04:56:00;;;;;;;0.57;0.50;;;;;;;6.00;82.58;100860.41;5030873;28;20155;-74
2022/04/14 04:58:29;;;;;;;1.20;0.63;;;;;;;5.98;83.03;100868.06;5030355;28;20510;-74
2022/04/14 05:00:57;;;;;;;2.47;0.85;;;;;;;5.93;82.09;100864.31;5030704;28;20511;-74
2022/04/14 05:03:26;;;;;;;3.08;1.20;;;;;;;5.89;81.45;100862.41;5030094;28;20049;-73
2022/04/14 05:05:54;;;;;;;3.28;1.20;;;;;;;5.86;82.54;100864.81;5030863;28;20088;-74
2022/04/14 05:08:24;;;;;;;5.45;2.00;;;;;;;5.84;83.40;100858.72;5031201;28;20049;-74
2022/04/14 05:10:52;;;;;;;7.45;1.83;;;;;;;5.83;82.94;100859.53;5030620;28;20053;-73
2022/04/14 05:13:21;;;;;;;5.93;2.08;;;;;;;5.79;82.16;100855.03;5030214;28;20507;-75
2022/04/14 05:15:58;;;;;;;6.20;2.20;;;;;;;5.73;81.36;100849.63;5030420;28;20057;-74
2022/04/14 05:18:27;;;;;;;5.38;1.92;;;;;;;5.67;81.06;100851.06;5030534;28;20089;-75
2022/04/14 05:20:55;;;;;;;4.75;2.45;;;;;;;5.61;81.38;100853.34;5030410;28;20049;-74
2022/04/14 05:23:25;;;;;;;4.50;2.08;;;;;;;5.58;82.38;100850.59;5032973;28;20076;-74
2022/04/14 05:25:54;;;;;;;8.93;2.40;;;;;;;5.53;82.36;100844.34;5030668;28;20103;-74
2022/04/14 05:28:23;;;;;;;3.25;1.90;;;;;;;5.53;83.08;100838.34;5030239;28;20049;-74
2022/04/14 05:30:52;;;;;;;4.88;2.10;;;;;;;5.50;83.99;100836.50;5029494;28;20084;-75
2022/04/14 05:33:27;;;;;;;3.13;1.40;;;;;;;5.48;85.15;100837.22;5030953;28;20053;-74
2022/04/14 05:35:56;;;;;;;3.95;1.95;;;;;;;5.47;86.01;100831.19;5029816;28;20049;-75
2022/04/14 05:38:27;;;;;;;2.97;1.70;;;;;;;5.45;85.93;100827.66;5029878;28;20049;-73
2022/04/14 05:40:55;;;;;;;11.35;2.20;;;;;;;5.41;86.10;100836.03;5029303;28;20041;-74
2022/04/14 05:43:27;;;;;;;6.88;2.40;;;;;;;5.38;85.87;100828.16;5029372;28;20103;-75
2022/04/14 05:45:56;;;;;;;2.95;1.77;;;;;;;5.36;85.15;100833.22;5029518;28;20056;-76
2022/04/14 05:48:25;;;;;;;4.70;1.88;;;;;;;5.33;86.10;100827.03;5030007;28;20053;-75
2022/04/14 05:50:54;;;;;;;3.55;1.95;;;;;;;5.29;85.40;100830.25;5029385;28;20053;-75
2022/04/14 05:53:28;;;;;;;3.67;1.95;;;;;;;5.24;85.75;100824.88;5029625;28;20045;-74
2022/04/14 05:55:56;;;;;;;6.22;2.33;;;;;;;5.21;86.31;100823.03;5029603;28;20059;-74
2022/04/14 05:58:25;;;;;;;3.22;2.08;;;;;;;5.18;86.38;100810.06;5029983;28;20042;-73
2022/04/14 06:00:54;;;;;;;2.80;1.45;;;;;;;5.17;85.09;100809.97;5029438;28;20049;-74
2022/04/14 06:03:22;;;;;;;2.88;1.38;;;;;;;5.15;84.48;100802.19;5029230;28;20104;-73
2022/04/14 06:05:50;;;;;;;2.05;1.48;;;;;;;5.13;83.89;100802.91;5029459;28;20127;-73
2022/04/14 06:08:19;;;;;;;3.65;1.73;;;;;;;5.08;83.44;100805.25;5029649;28;20050;-73
2022/04/14 06:10:49;;;;;;;2.55;1.52;;;;;;;5.02;82.57;100802.38;5029612;28;20081;-73
2022/04/14 06:13:18;;;;;;;1.92;1.20;;;;;;;4.96;82.69;100799.47;5028916;28;20136;-74
2022/04/14 06:15:46;;;;;;;2.60;1.10;;;;;;;4.91;82.48;100796.66;5029667;28;20045;-73
2022/04/14 06:18:14;;;;;;;2.25;0.75;;;;;;;4.90;83.08;100799.16;5029763;28;20054;-73
2022/04/14 06:20:47;;;;;;;2.67;1.10;;;;;;;4.86;83.98;100797.25;5029736;28;20045;-73
2022/04/14 06:23:16;;;;;;;;;;;;;;;4.83;83.51;100798.84;5033388;28;20041;-73
2022/04/14 06:25:45;;;;;;;2.45;0.93;;;;;;;4.80;82.60;100785.84;5030492;28;19984;-73
2022/04/14 06:28:15;;;;;;;3.25;0.88;;;;;;;4.75;82.15;100792.41;5029827;28;20052;-73
2022/04/14 06:30:44;;;;;;;2.47;1.20;;;;;;;4.60;81.11;100781.31;5029277;28;20462;-73
2022/04/14 06:33:20;;;;;;;2.83;1.15;;;;;;;4.65;82.60;100789.25;5030983;28;20108;-74
2022/04/14 06:35:49;;;;;;;3.70;1.35;;;;;;;4.62;82.36;100798.53;5029072;28;20052;-73
2022/04/14 06:38:19;;;;;;;4.93;1.33;;;;;;;4.57;82.08;100789.75;5030285;28;20146;-73
2022/04/14 06:40:48;;;;;;;1.33;0.95;;;;;;;4.53;82.87;100800.59;5028390;28;20054;-73
2022/04/14 06:43:18;;;;;;;2.60;1.13;;;;;;;4.51;83.12;100798.78;5032515;28;20588;-73
2022/04/14 06:45:47;;;;;;;2.35;1.30;;;;;;;4.46;83.05;100792.53;5033396;28;20111;-73
2022/04/14 06:48:16;;;;;;;2.90;1.50;;;;;;;4.40;82.36;100791.41;5033182;28;20502;-74
2022/04/14 06:50:44;;;;;;;5.45;2.10;;;;;;;4.37;83.25;100798.00;5033255;28;20111;-74
2022/04/14 06:53:13;;;;;;;4.13;1.08;;;;;;;4.31;83.93;100790.00;5032816;28;20115;-74
2022/04/14 06:55:45;;;;;;;3.03;1.83;;;;;;;4.27;84.75;100783.81;5033503;28;20053;-74
2022/04/14 06:58:13;;;;;;;5.35;1.90;;;;;;;4.24;82.97;100788.78;5033012;28;20498;-74
2022/04/14 07:00:43;;;;;;;4.03;1.90;;;;;;;4.18;83.14;100783.31;5032466;28;20092;-73
2022/04/14 07:03:12;;;;;;;6.85;2.20;;;;;;;4.13;82.88;100784.75;5032526;28;20128;-74
2022/04/14 07:05:40;;;;;;;5.13;1.45;;;;;;;4.11;82.71;100791.47;5032966;28;20115;-74
2022/04/14 07:08:09;;;;;;;4.07;1.35;;;;;;;4.08;82.61;100783.63;5033027;28;20447;-74
2022/04/14 07:10:37;;;;;;;5.82;1.45;;;;;;;4.06;82.36;100777.53;5032788;28;20100;-74
2022/04/14 07:13:06;;;;;;;8.98;1.63;;;;;;;4.04;83.15;100789.34;5032279;28;20061;-74
2022/04/14 07:15:34;;;;;;;5.28;2.15;;;;;;;4.02;83.26;100781.59;5032655;28;20132;-74
2022/04/14 07:18:05;;;;;;;7.00;1.77;;;;;;;3.99;83.53;100787.41;5032830;28;20049;-74
2022/04/14 07:20:33;;;;;;;3.95;1.52;;;;;;;3.93;83.38;100781.94;5032789;28;20103;-74
2022/04/14 07:23:02;;;;;;;6.10;1.42;;;;;;;3.88;82.84;100788.47;5027434;28;20050;-74
2022/04/14 07:25:33;;;;;;;3.63;1.73;;;;;;;3.82;83.18;100783.00;5014893;28;20050;-74
2022/04/14 07:28:01;;;;;;;4.15;1.88;;;;;;;3.78;83.48;100778.53;5032634;28;20050;-74
2022/04/14 07:30:31;;;;;;;4.32;1.70;;;;;;;3.75;82.62;100783.47;5032844;28;20042;-74
2022/04/14 07:33:00;;;;;;;3.47;1.38;;;;;;;3.66;82.77;100785.50;5032907;28;20052;-74
2022/04/14 07:35:30;;;;;;;3.45;1.38;;;;;;;3.46;87.46;100787.78;5032052;28;20531;-75
2022/04/14 07:37:58;;;;;;;4.70;1.65;;;;;;;3.38;95.78;100789.00;5032909;28;20053;-75
2022/04/14 07:40:27;;;;;;;5.55;1.92;;;;;;;3.37;100.00;100789.81;5031550;28;20513;-75
2022/04/14 07:42:58;;;;;;;4.13;1.73;;;;;;;3.40;100.00;100787.41;5031779;28;20060;-74
2022/04/14 07:45:26;;;;;;;6.22;1.98;;;;;;;3.41;100.00;100794.28;5032523;28;20057;-74
2022/04/14 07:47:55;;;;;;;7.13;2.35;;;;;;;3.42;100.00;100785.84;5031770;28;20057;-74
2022/04/14 07:50:24;;;;;;;4.38;2.33;;;;;;;3.42;100.00;100788.41;5032106;28;20046;-74
2022/04/14 07:52:56;;;;;;;8.10;2.58;;;;;;;3.36;100.00;100786.34;5030775;28;20767;-74
2022/04/14 07:55:26;;;;;;;4.53;2.13;;;;;;;3.25;100.00;100797.66;5031858;28;20136;-74
2022/04/14 07:57:56;;;;;;;4.45;1.83;;;;;;;3.13;100.00;100800.31;5031589;28;20076;-74
2022/04/14 08:00:25;;;;;;;6.15;1.75;;;;;;;3.10;100.00;100802.72;5031625;28;20077;-74
2022/04/14 08:02:56;;;;;;;2.78;1.42;;;;;;;3.13;100.00;100799.44;5030644;28;20558;-74
2022/04/14 08:05:29;;;;;;;3.85;1.80;;;;;;;3.15;100.00;100793.63;5031339;28;20049;-74
2022/04/14 08:07:59;;;;;;;5.35;2.42;;;;;;;3.19;100.00;100806.63;5031686;28;20049;-73
2022/04/14 08:10:27;;;;;;;4.82;1.95;;;;;;;3.21;100.00;100795.69;5031236;28;20194;-73
2022/04/14 08:12:56;;;;;;;5.70;1.95;;;;;;;3.21;100.00;100795.69;5030637;28;20445;-74
2022/04/14 08:15:25;;;;;;;4.28;1.80;;;;;;;3.21;100.00;100792.22;5032128;28;20104;-74
2022/04/14 08:17:53;;;;;;;10.23;2.88;;;;;;;3.22;100.00;100788.91;5031578;28;20049;-74
2022/04/14 08:20:22;;;;;;;10.13;3.00;;;;;;;3.24;100.00;100787.31;5032220;28;20092;-73
2022/04/14 08:22:52;;;;;;;6.97;2.97;;;;;;;3.24;100.00;100787.31;5031376;28;20042;-74
2022/04/14 08:25:24;;;;;;;5.05;2.00;;;;;;;3.23;100.00;100788.09;5033687;28;20133;-73
2022/04/14 08:27:53;;;;;;;2.67;1.50;;;;;;;3.20;100.00;100783.69;5030894;28;20051;-73
2022/04/14 08:30:23;;;;;;;4.78;2.35;;;;;;;3.20;100.00;100795.59;5031343;28;20046;-73
2022/04/14 08:32:53;;;;;;;2.97;1.58;;;;;;;3.17;100.00;100797.97;5031902;28;20053;-75
2022/04/14 08:35:22;;;;;;;8.27;2.22;;;;;;;3.13;100.00;100797.78;5031047;28;20139;-73
2022/04/14 08:37:51;;;;;;;4.13;1.48;;;;;;;3.12;100.00;100796.00;5031410;28;20056;-73
2022/04/14 08:40:22;;;;;;;6.72;1.67;;;;;;;3.08;100.00;100799.16;5031482;28;20057;-73
2022/04/14 08:42:54;;;;;;;4.72;1.30;;;;;;;3.06;100.00;100800.75;5030866;28;20050;-73
2022/04/14 08:45:26;;;;;;;4.05;1.90;;;;;;;3.02;100.00;100798.78;5031312;28;20128;-74
2022/04/14 08:47:54;;;;;;;4.00;1.20;;;;;;;3.00;100.00;100797.84;5031438;28;20055;-73
2022/04/14 08:50:24;;;;;;;4.28;1.65;;;;;;;2.97;100.00;100800.19;5031126;28;20128;-73
2022/04/14 08:52:53;;;;;;;3.08;1.40;;;;;;;2.92;100.00;100796.50;5031011;28;20064;-74
2022/04/14 08:55:23;;;;;;;3.25;1.95;;;;;;;2.86;100.00;100804.69;5031202;28;20092;-73
2022/04/14 08:57:52;;;;;;;2.75;1.50;;;;;;;2.82;100.00;100800.16;5031154;28;20041;-73
2022/04/14 09:00:20;;;;;;;3.60;1.15;;;;;;;2.83;100.00;100801.03;5031913;28;20053;-73
2022/04/14 09:02:51;;;;;;;3.60;1.38;;;;;;;2.85;100.00;100799.47;5029968;28;20049;-73
2022/04/14 09:05:19;;;;;;;2.47;1.58;;;;;;;2.86;100.00;100796.09;5031653;28;20136;-73
2022/04/14 09:07:50;;;;;;;4.15;1.90;;;;;;;2.86;100.00;100796.09;5030476;28;20095;-73
2022/04/14 09:10:19;;;;;;;5.32;1.55;;;;;;;2.88;100.00;100786.88;5030695;28;20133;-74
2022/04/14 09:12:49;;;;;;;5.53;2.10;;;;;;;2.86;100.00;100785.88;5029906;28;20057;-73
2022/04/14 09:15:19;;;;;;;4.45;2.38;;;;;;;2.87;100.00;100787.66;5030509;28;20064;-73
2022/04/14 09:17:47;;;;;;;6.22;1.92;;;;;;;2.87;100.00;100788.53;5030269;28;20518;-72
2022/04/14 09:20:37;;;;;;;5.93;2.22;;;;;;;2.84;100.00;100790.00;5030231;28;20111;-73
2022/04/14 09:23:22;;;;;;;5.53;1.80;;;;;;;2.83;100.00;100785.72;5026167;28;20506;-73
2022/04/14 09:25:52;;;;;;;3.28;1.95;;;;;;;2.80;100.00;100785.53;5032779;28;20081;-74
2022/04/14 09:28:23;;;;;;;2.72;1.73;;;;;;;2.79;100.00;100794.84;5030416;28;20056;-74
2022/04/14 09:31:02;;;;;;;2.75;1.67;;;;;;;2.73;100.00;100792.81;5030065;28;20057;-74
2022/04/14 09:33:31;;;;;;;6.53;1.65;;;;;;;2.62;100.00;100781.03;5046069;28;20567;-73
2022/04/14 09:36:12;;;;;;;2.38;1.10;;;;;;;2.59;100.00;100778.31;5049513;28;20824;-74
2022/04/14 09:38:58;;;;;;;3.08;1.88;;;;;;;2.59;100.00;100775.75;5048596;28;20084;-74
2022/04/14 09:41:44;;;;;;;2.53;0.93;;;;;;;2.57;100.00;100774.78;5030048;28;20100;-74
2022/04/14 09:44:15;;;;;;;3.50;1.02;;;;;;;2.55;100.00;100771.25;5029336;28;20053;-74
2022/04/14 09:46:45;;;;;;;1.88;1.17;;;;;;;2.57;100.00;100786.69;5029537;28;20049;-74
2022/04/14 09:49:15;;;;;;;1.85;1.20;;;;;;;2.55;100.00;100783.13;5029813;28;20518;-74
2022/04/14 09:51:44;;;;;;;2.20;1.30;;;;;;;2.52;100.00;100778.72;5029626;28;20049;-74
2022/04/14 09:54:15;;;;;;;2.45;1.17;;;;;;;2.48;100.00;100774.22;5029371;28;20049;-74
2022/04/14 09:56:46;;;;;;;3.88;1.50;;;;;;;2.39;100.00;100774.50;5029431;28;20085;-76
2022/04/14 09:59:18;;;;;;;4.20;2.03;;;;;;;2.35;100.00;100774.22;5030111;28;20124;-73
2022/04/14 10:04:32;;;;;;;3.78;1.40;;;;;;;2.30;100.00;100767.16;5045723;22;20062;-71
2022/04/14 10:07:06;;;;;;;3.53;1.20;;;;;;;2.20;100.00;100754.63;4994444;28;20105;-73
2022/04/14 10:09:35;;;;;;;1.88;1.23;;;;;;;2.27;100.00;100766.97;5008847;28;20089;-71
2022/04/14 10:12:04;;;;;;;4.57;1.38;;;;;;;2.23;100.00;100767.56;5004904;28;20053;-73
2022/04/14 10:14:34;;;;;;;1.45;0.80;;;;;;;2.19;100.00;100759.63;4988139;28;20129;-73
2022/04/14 10:17:05;;;;;;;4.30;1.10;;;;;;;2.14;100.00;100759.31;4994494;28;20483;-72
2022/04/14 10:19:36;;;;;;;3.30;1.13;;;;;;;2.12;100.00;100760.91;4995036;28;20054;-71
2022/04/14 10:22:06;;;;;;;2.65;1.27;;;;;;;2.12;100.00;100760.91;4994771;28;20048;-72
2022/04/14 10:24:42;;;;;;;2.80;1.23;;;;;;;1.99;100.00;100749.00;4995896;28;20393;-71
2022/04/14 10:27:12;;;;;;;2.05;1.20;;;;;;;2.09;100.00;100755.59;4994829;28;20054;-71
2022/04/14 10:29:43;;;;;;;2.25;1.25;;;;;;;2.10;100.00;100757.34;4995531;28;20054;-71
2022/04/14 10:32:13;;;;;;;2.47;1.20;;;;;;;2.10;100.00;100754.81;4995037;28;20490;-71
2022/04/14 10:34:42;;;;;;;1.80;0.93;;;;;;;2.08;100.00;100753.81;4994757;28;20081;-72
2022/04/14 10:37:12;;;;;;;2.75;1.52;;;;;;;2.08;100.00;100764.03;4994873;28;20042;-71
2022/04/14 10:39:45;;;;;;;2.30;1.45;;;;;;;2.06;100.00;100760.50;4995556;28;20104;-71
2022/04/14 10:42:16;;;;;;;6.43;2.15;;;;;;;2.02;100.00;100761.13;4995633;28;20050;-71
2022/04/14 10:44:50;;;;;;;4.20;1.58;;;;;;;1.99;100.00;100753.25;4995000;28;20516;-72
2022/04/14 10:47:53;;;;;;;2.08;1.35;;;;;;;1.96;100.00;100753.94;4998514;28;20134;-71
2022/04/14 10:50:23;;;;;;;4.20;1.80;;;;;;;1.94;100.00;100758.06;4998672;28;20064;-71
2022/04/14 10:53:05;;;;;;;2.42;1.25;;;;;;;1.90;100.00;100750.97;4995198;28;20089;-71
2022/04/14 10:55:44;;;;;;;2.45;1.08;;;;;;;1.88;100.00;100753.44;5002300;28;20050;-71
2022/04/14 10:58:54;;;;;;;5.97;2.00;;;;;;;1.88;100.00;100756.00;4976023;28;20047;-71
2022/04/14 11:01:55;;;;;;;3.20;1.67;;;;;;;1.84;100.00;100755.72;4955965;28;20601;-71
2022/04/14 11:04:37;;;;;;;2.03;1.35;;;;;;;1.75;100.00;100758.53;4978054;28;20066;-71
2022/04/14 11:07:12;;;;;;;5.32;1.52;;;;;;;1.59;100.00;100766.00;4975189;28;20138;-72
2022/04/14 11:09:55;;;;;;;3.60;1.27;;;;;;;1.50;100.00;100760.28;4975324;28;20050;-71
2022/04/14 11:12:25;;;;;;;6.72;1.60;;;;;;;1.46;100.00;100764.28;4970748;28;20484;-71
2022/04/14 11:14:56;;;;;;;3.33;1.23;;;;;;;1.51;100.00;100756.94;4975006;28;20042;-71
2022/04/14 11:17:57;;;;;;;3.83;1.27;;;;;;;1.51;100.00;100756.94;4975314;28;20042;-71
2022/04/14 11:21:05;;;;;;;3.17;1.25;;;;;;;1.50;100.00;100760.28;4975655;28;20054;-72
2022/04/14 11:23:36;;;;;;;3.78;2.53;;;;;;;1.50;100.00;100761.16;4956510;28;20122;-71
2022/04/14 11:26:10;;;;;;;2.45;1.55;;;;;;;1.50;100.00;100766.25;4955765;29;20055;-71
2022/04/14 11:28:42;;;;;;;2.85;1.45;;;;;;;1.50;100.00;100762.84;4976935;28;20058;-71
2022/04/14 11:31:27;;;;;;;3.65;1.40;;;;;;;1.44;100.00;100759.09;4980179;28;20119;-71
2022/04/14 11:33:58;;;;;;;2.47;1.30;;;;;;;1.43;100.00;100770.06;4987814;28;20111;-72
2022/04/14 11:36:29;;;;;;;3.30;1.20;;;;;;;1.43;100.00;100769.19;4972614;28;20059;-72
2022/04/14 11:39:04;;;;;;;2.95;1.23;;;;;;;1.42;100.00;100781.06;4972262;28;20076;-72
2022/04/14 11:41:53;;;;;;;4.22;1.50;;;;;;;1.36;100.00;100772.13;4972647;28;20449;-72
2022/04/14 11:44:23;;;;;;;2.95;1.73;;;;;;;1.36;100.00;100773.00;4971535;28;20467;-72
2022/04/14 11:46:56;;;;;;;2.47;1.63;;;;;;;1.32;100.00;100760.81;4972320;28;20055;-72
2022/04/14 11:49:25;;;;;;;4.68;1.50;;;;;;;1.34;100.00;100773.69;4978661;28;20051;-72